TimeCST,TemperatureF,Dew PointF,Humidity,Sea Level PressureIn,VisibilityMPH,Wind Direction,Wind SpeedMPH,Gust SpeedMPH,PrecipitationIn,Events,Conditions,WindDirDegrees,DateUTC
12:53 AM,57.0,53.1,87,30.05,10.0,SSE,4.6,-,N/A,,Overcast,150,2011-01-30 06:53:00
1:53 AM,55.9,53.1,90,30.05,10.0,SSE,4.6,-,N/A,,Mostly Cloudy,150,2011-01-30 07:53:00
2:53 AM,55.9,53.1,90,30.04,10.0,SE,3.5,-,N/A,,Scattered Clouds,140,2011-01-30 08:53:00
3:53 AM,55.9,54.0,93,30.04,10.0,SSE,4.6,-,N/A,,Mostly Cloudy,150,2011-01-30 09:53:00
4:53 AM,57.0,54.0,89,30.05,10.0,SE,3.5,-,0.00,Rain,Light Rain,140,2011-01-30 10:53:00
5:37 AM,57.2,53.6,88,30.06,10.0,Calm,Calm,-,0.00,,Overcast,0,2011-01-30 11:37:00
5:48 AM,57.2,53.6,88,30.06,10.0,SE,4.6,-,0.00,,Overcast,130,2011-01-30 11:48:00
5:53 AM,57.0,54.0,89,30.07,10.0,SE,5.8,-,0.00,,Overcast,130,2011-01-30 11:53:00
6:53 AM,55.9,54.0,93,30.08,10.0,SE,3.5,-,0.00,,Overcast,140,2011-01-30 12:53:00
7:53 AM,55.9,55.0,97,30.09,8.0,SE,3.5,-,0.01,Rain,Light Rain,130,2011-01-30 13:53:00
8:53 AM,57.0,55.0,93,30.10,10.0,SE,3.5,-,0.01,Rain,Light Rain,140,2011-01-30 14:53:00
9:53 AM,59.0,57.0,93,30.09,8.0,South,9.2,-,0.01,Rain,Light Rain,170,2011-01-30 15:53:00
10:09 AM,59.0,57.2,94,30.08,8.0,South,9.2,-,0.00,Rain,Light Rain,170,2011-01-30 16:09:00
10:28 AM,60.8,57.2,88,30.07,10.0,South,9.2,-,0.00,,Scattered Clouds,170,2011-01-30 16:28:00
10:53 AM,61.0,57.9,90,30.08,10.0,South,11.5,-,0.00,,Scattered Clouds,170,2011-01-30 16:53:00
11:06 AM,60.8,57.2,88,30.06,10.0,South,9.2,-,N/A,,Mostly Cloudy,180,2011-01-30 17:06:00
11:22 AM,60.8,59.0,94,30.06,10.0,South,8.1,-,N/A,,Mostly Cloudy,170,2011-01-30 17:22:00
11:30 AM,60.8,59.0,94,30.06,10.0,South,9.2,18.4,N/A,,Mostly Cloudy,180,2011-01-30 17:30:00
11:53 AM,62.1,57.9,86,30.06,10.0,South,6.9,-,N/A,,Mostly Cloudy,180,2011-01-30 17:53:00
12:00 PM,62.6,59.0,88,30.04,10.0,South,5.8,-,N/A,,Overcast,190,2011-01-30 18:00:00
12:53 PM,63.0,60.1,90,30.03,10.0,South,8.1,-,0.01,,Overcast,180,2011-01-30 18:53:00
1:19 PM,62.6,59.0,88,30.02,10.0,SSW,11.5,-,0.00,Rain,Light Rain,200,2011-01-30 19:19:00
1:53 PM,62.1,59.0,90,30.02,10.0,SSW,9.2,-,0.01,Rain,Light Rain,200,2011-01-30 19:53:00
2:00 PM,62.6,59.0,88,30.01,5.0,SSW,8.1,-,0.02,Rain,Rain,200,2011-01-30 20:00:00
2:17 PM,60.8,60.8,100,30.00,6.0,South,8.1,-,0.06,Rain,Rain,170,2011-01-30 20:17:00
2:53 PM,61.0,59.0,93,30.02,10.0,SSW,9.2,-,0.06,,Overcast,200,2011-01-30 20:53:00
3:53 PM,61.0,59.0,93,30.02,7.0,Calm,Calm,-,0.06,Rain,Light Rain,0,2011-01-30 21:53:00
4:00 PM,60.8,59.0,94,30.00,10.0,Calm,Calm,-,0.00,Rain,Light Rain,0,2011-01-30 22:00:00
4:12 PM,60.8,59.0,94,29.99,8.0,East,4.6,-,0.01,Rain,Light Rain,100,2011-01-30 22:12:00
4:53 PM,60.1,59.0,96,30.03,4.0,Calm,Calm,-,0.07,Rain,Light Rain,0,2011-01-30 22:53:00
5:07 PM,60.8,57.2,88,30.02,6.0,Calm,Calm,-,0.01,Rain,Light Rain,0,2011-01-30 23:07:00
5:14 PM,60.8,59.0,94,30.02,7.0,Calm,Calm,-,0.02,Rain,Light Rain,0,2011-01-30 23:14:00
5:53 PM,59.0,57.9,96,30.06,6.0,Calm,Calm,-,0.03,Rain,Light Rain,0,2011-01-30 23:53:00
6:16 PM,57.2,57.2,100,30.05,1.8,Calm,Calm,-,0.02,Rain,Light Rain,0,2011-01-31 00:16:00
6:24 PM,57.2,57.2,100,30.05,3.0,Calm,Calm,-,0.02,Rain,Light Rain,0,2011-01-31 00:24:00
6:53 PM,57.9,57.0,97,30.06,7.0,Calm,Calm,-,0.04,Rain,Light Rain,0,2011-01-31 00:53:00
7:53 PM,57.9,57.0,97,30.03,10.0,SE,5.8,-,0.00,Rain,Light Rain,130,2011-01-31 01:53:00
8:53 PM,57.9,57.0,97,30.03,9.0,South,10.4,-,0.01,,Mostly Cloudy,190,2011-01-31 02:53:00
9:01 PM,57.2,57.2,100,30.01,9.0,South,10.4,-,N/A,,Overcast,190,2011-01-31 03:01:00
9:53 PM,57.0,55.9,96,30.04,10.0,Calm,Calm,-,N/A,,Clear,0,2011-01-31 03:53:00
10:51 PM,53.6,53.6,100,30.03,1.8,Calm,Calm,-,N/A,,Clear,0,2011-01-31 04:51:00
10:53 PM,53.1,53.1,100,30.04,1.5,North,3.5,-,N/A,,Clear,10,2011-01-31 04:53:00
11:15 PM,53.6,53.6,100,30.03,0.8,NE,3.5,-,N/A,,Mist,50,2011-01-31 05:15:00
11:30 PM,53.6,51.8,94,30.02,0.5,East,3.5,-,N/A,Fog,Fog,80,2011-01-31 05:30:00
11:41 PM,55.4,53.6,94,30.02,2.0,ESE,5.8,-,N/A,,Overcast,110,2011-01-31 05:41:00
11:49 PM,55.4,55.4,100,30.02,5.0,ESE,4.6,-,N/A,,Overcast,110,2011-01-31 05:49:00
11:53 PM,55.0,55.0,100,30.03,5.0,ESE,4.6,-,N/A,,Overcast,110,2011-01-31 05:53:00